sensor_id;sensor_type;location;lat;lon;timestamp;pressure;altitude;pressure_sealevel;temperature;humidity
52983;BME280;48698;45.736;13.926;2023-02-03T00:04:40;98261.34;;;2.94;100.00
52983;BME280;48698;45.736;13.926;2023-02-03T00:09:43;98291.81;;;3.07;100.00
52983;BME280;48698;45.736;13.926;2023-02-03T00:14:47;98315.50;;;2.99;100.00
52983;BME280;48698;45.736;13.926;2023-02-03T00:19:50;98381.56;;;3.39;100.00
52983;BME280;48698;45.736;13.926;2023-02-03T00:24:55;98181.81;;;2.08;100.00
52983;BME280;48698;45.736;13.926;2023-02-03T00:29:58;98377.38;;;3.23;100.00
52983;BME280;48698;45.736;13.926;2023-02-03T00:35:11;98327.63;;;3.11;100.00
52983;BME280;48698;45.736;13.926;2023-02-03T00:40:15;98359.75;;;3.34;100.00
52983;BME280;48698;45.736;13.926;2023-02-03T00:45:19;98351.03;;;3.31;100.00
52983;BME280;48698;45.736;13.926;2023-02-03T00:50:22;98328.03;;;2.69;100.00
52983;BME280;48698;45.736;13.926;2023-02-03T00:55:26;98341.91;;;2.83;100.00
52983;BME280;48698;45.736;13.926;2023-02-03T01:00:30;98130.06;;;1.34;100.00
52983;BME280;48698;45.736;13.926;2023-02-03T01:05:34;98306.25;;;2.64;100.00
52983;BME280;48698;45.736;13.926;2023-02-03T01:10:38;98313.22;;;2.68;100.00
52983;BME280;48698;45.736;13.926;2023-02-03T01:15:46;98389.84;;;3.01;100.00
52983;BME280;48698;45.736;13.926;2023-02-03T01:20:50;98360.97;;;2.98;100.00
52983;BME280;48698;45.736;13.926;2023-02-03T01:25:53;98264.34;;;2.57;100.00
52983;BME280;48698;45.736;13.926;2023-02-03T01:31:13;98364.13;;;3.32;100.00
52983;BME280;48698;45.736;13.926;2023-02-03T01:36:17;98378.94;;;3.41;100.00
52983;BME280;48698;45.736;13.926;2023-02-03T01:41:24;98423.75;;;3.24;100.00
52983;BME280;48698;45.736;13.926;2023-02-03T01:46:40;98382.84;;;3.00;100.00
52983;BME280;48698;45.736;13.926;2023-02-03T01:51:48;98336.44;;;2.00;100.00
52983;BME280;48698;45.736;13.926;2023-02-03T01:56:58;98273.22;;;1.12;100.00
52983;BME280;48698;45.736;13.926;2023-02-03T02:02:06;98446.63;;;1.72;100.00
52983;BME280;48698;45.736;13.926;2023-02-03T02:07:11;98275.09;;;0.63;100.00
52983;BME280;48698;45.736;13.926;2023-02-03T02:12:26;98141.13;;;-0.18;100.00
52983;BME280;48698;45.736;13.926;2023-02-03T02:28:57;98387.47;;;1.01;100.00
52983;BME280;48698;45.736;13.926;2023-02-03T02:39:44;98307.31;;;0.67;100.00
52983;BME280;48698;45.736;13.926;2023-02-03T02:45:03;98403.88;;;1.58;100.00
52983;BME280;48698;45.736;13.926;2023-02-03T02:50:12;98195.91;;;0.32;100.00
52983;BME280;48698;45.736;13.926;2023-02-03T02:55:22;98354.31;;;1.00;100.00
52983;BME280;48698;45.736;13.926;2023-02-03T03:00:31;98253.31;;;0.69;100.00
52983;BME280;48698;45.736;13.926;2023-02-03T03:05:36;98411.81;;;1.30;100.00
52983;BME280;48698;45.736;13.926;2023-02-03T03:10:42;98426.34;;;2.05;100.00
52983;BME280;48698;45.736;13.926;2023-02-03T03:15:47;98411.38;;;2.26;100.00
52983;BME280;48698;45.736;13.926;2023-02-03T03:20:54;98335.19;;;0.80;100.00
52983;BME280;48698;45.736;13.926;2023-02-03T03:26:11;98389.22;;;0.87;100.00
52983;BME280;48698;45.736;13.926;2023-02-03T03:31:16;98458.97;;;0.76;100.00
52983;BME280;48698;45.736;13.926;2023-02-03T03:36:26;98464.16;;;1.33;100.00
52983;BME280;48698;45.736;13.926;2023-02-03T03:41:42;98475.44;;;1.66;100.00
52983;BME280;48698;45.736;13.926;2023-02-03T03:47:01;98422.34;;;0.95;100.00
52983;BME280;48698;45.736;13.926;2023-02-03T03:52:08;98209.84;;;-0.50;100.00
52983;BME280;48698;45.736;13.926;2023-02-03T03:57:24;98454.63;;;0.85;100.00
52983;BME280;48698;45.736;13.926;2023-02-03T04:02:29;98474.66;;;0.97;100.00
52983;BME280;48698;45.736;13.926;2023-02-03T04:07:46;98460.66;;;0.42;100.00
52983;BME280;48698;45.736;13.926;2023-02-03T04:12:50;98464.09;;;0.21;100.00
52983;BME280;48698;45.736;13.926;2023-02-03T04:17:54;98486.81;;;0.52;100.00
52983;BME280;48698;45.736;13.926;2023-02-03T04:22:59;98295.06;;;-0.62;100.00
52983;BME280;48698;45.736;13.926;2023-02-03T04:28:12;98482.47;;;0.58;100.00
52983;BME280;48698;45.736;13.926;2023-02-03T04:33:16;98160.13;;;-1.25;100.00
52983;BME280;48698;45.736;13.926;2023-02-03T04:38:30;98254.94;;;-1.00;100.00
52983;BME280;48698;45.736;13.926;2023-02-03T04:43:33;98461.50;;;0.20;100.00
52983;BME280;48698;45.736;13.926;2023-02-03T04:48:37;98180.06;;;-1.37;100.00
52983;BME280;48698;45.736;13.926;2023-02-03T04:53:51;98478.94;;;0.46;100.00
52983;BME280;48698;45.736;13.926;2023-02-03T04:58:55;98455.34;;;0.03;100.00
52983;BME280;48698;45.736;13.926;2023-02-03T05:03:58;98283.59;;;-1.01;100.00
52983;BME280;48698;45.736;13.926;2023-02-03T05:09:02;98506.81;;;0.37;100.00
52983;BME280;48698;45.736;13.926;2023-02-03T05:14:06;98376.72;;;-0.78;100.00
52983;BME280;48698;45.736;13.926;2023-02-03T05:19:09;98267.03;;;-1.17;100.00
52983;BME280;48698;45.736;13.926;2023-02-03T05:24:13;98488.28;;;-0.31;100.00
52983;BME280;48698;45.736;13.926;2023-02-03T05:29:17;98421.03;;;-0.84;100.00
52983;BME280;48698;45.736;13.926;2023-02-03T05:34:21;98472.56;;;-0.43;100.00
52983;BME280;48698;45.736;13.926;2023-02-03T05:39:29;98521.22;;;-0.50;100.00
52983;BME280;48698;45.736;13.926;2023-02-03T05:44:43;98435.59;;;-1.13;100.00
52983;BME280;48698;45.736;13.926;2023-02-03T05:49:56;98357.13;;;-1.52;100.00
52983;BME280;48698;45.736;13.926;2023-02-03T05:55:00;98552.34;;;-0.76;100.00
52983;BME280;48698;45.736;13.926;2023-02-03T06:00:04;98480.78;;;-1.11;100.00
52983;BME280;48698;45.736;13.926;2023-02-03T06:05:20;98566.31;;;-0.68;100.00
52983;BME280;48698;45.736;13.926;2023-02-03T06:10:24;98323.31;;;-2.44;100.00
52983;BME280;48698;45.736;13.926;2023-02-03T06:15:28;98527.59;;;-1.26;100.00
52983;BME280;48698;45.736;13.926;2023-02-03T06:20:33;98376.38;;;-2.27;100.00
52983;BME280;48698;45.736;13.926;2023-02-03T06:25:43;98518.13;;;-1.12;100.00
52983;BME280;48698;45.736;13.926;2023-02-03T06:30:55;98528.97;;;-0.64;100.00
52983;BME280;48698;45.736;13.926;2023-02-03T06:36:02;98418.00;;;-1.41;100.00
52983;BME280;48698;45.736;13.926;2023-02-03T06:41:06;98478.06;;;-1.26;100.00
52983;BME280;48698;45.736;13.926;2023-02-03T06:46:09;98550.50;;;-0.86;100.00
52983;BME280;48698;45.736;13.926;2023-02-03T06:51:24;98629.72;;;-0.75;100.00
52983;BME280;48698;45.736;13.926;2023-02-03T06:56:28;98370.38;;;-2.23;100.00
52983;BME280;48698;45.736;13.926;2023-02-03T07:01:32;98546.66;;;-1.30;100.00
52983;BME280;48698;45.736;13.926;2023-02-03T07:06:36;98574.41;;;-1.34;100.00
52983;BME280;48698;45.736;13.926;2023-02-03T07:11:39;98518.56;;;-1.59;100.00
52983;BME280;48698;45.736;13.926;2023-02-03T07:16:43;98518.00;;;-1.30;100.00
52983;BME280;48698;45.736;13.926;2023-02-03T07:21:47;98501.19;;;-1.63;100.00
52983;BME280;48698;45.736;13.926;2023-02-03T07:26:51;98633.38;;;-0.58;100.00
52983;BME280;48698;45.736;13.926;2023-02-03T07:31:55;98367.22;;;-1.89;100.00
52983;BME280;48698;45.736;13.926;2023-02-03T07:36:59;98568.13;;;-0.58;100.00
52983;BME280;48698;45.736;13.926;2023-02-03T07:42:03;98672.06;;;-0.04;100.00
52983;BME280;48698;45.736;13.926;2023-02-03T07:47:09;98604.22;;;0.03;100.00
52983;BME280;48698;45.736;13.926;2023-02-03T07:52:20;98626.94;;;0.23;100.00
52983;BME280;48698;45.736;13.926;2023-02-03T07:57:23;98584.38;;;0.42;100.00
52983;BME280;48698;45.736;13.926;2023-02-03T08:02:27;98493.75;;;0.26;100.00
52983;BME280;48698;45.736;13.926;2023-02-03T08:07:30;98457.13;;;0.23;100.00
52983;BME280;48698;45.736;13.926;2023-02-03T08:12:34;98533.91;;;0.77;100.00
52983;BME280;48698;45.736;13.926;2023-02-03T08:17:38;98585.41;;;1.19;100.00
52983;BME280;48698;45.736;13.926;2023-02-03T08:22:56;98449.34;;;0.73;100.00
52983;BME280;48698;45.736;13.926;2023-02-03T08:28:00;98550.44;;;1.76;100.00
52983;BME280;48698;45.736;13.926;2023-02-03T08:33:14;98406.63;;;1.26;100.00
52983;BME280;48698;45.736;13.926;2023-02-03T08:38:18;98494.31;;;2.45;100.00
52983;BME280;48698;45.736;13.926;2023-02-03T08:43:21;98230.59;;;0.89;100.00
52983;BME280;48698;45.736;13.926;2023-02-03T08:48:25;98335.69;;;1.80;100.00
52983;BME280;48698;45.736;13.926;2023-02-03T08:53:28;98382.44;;;2.44;100.00
52983;BME280;48698;45.736;13.926;2023-02-03T08:58:32;98297.97;;;2.12;100.00
52983;BME280;48698;45.736;13.926;2023-02-03T09:03:36;98482.22;;;3.41;100.00
52983;BME280;48698;45.736;13.926;2023-02-03T09:08:39;98481.97;;;3.62;100.00
52983;BME280;48698;45.736;13.926;2023-02-03T09:13:43;98291.19;;;2.82;100.00
52983;BME280;48698;45.736;13.926;2023-02-03T09:18:51;98467.16;;;4.29;100.00
52983;BME280;48698;45.736;13.926;2023-02-03T09:23:54;98556.53;;;5.00;100.00
52983;BME280;48698;45.736;13.926;2023-02-03T09:28:58;98260.50;;;3.60;100.00
52983;BME280;48698;45.736;13.926;2023-02-03T09:34:05;98566.78;;;5.70;100.00
52983;BME280;48698;45.736;13.926;2023-02-03T09:39:09;98524.13;;;5.49;100.00
52983;BME280;48698;45.736;13.926;2023-02-03T09:44:23;98559.28;;;6.00;100.00
52983;BME280;48698;45.736;13.926;2023-02-03T09:49:42;98558.84;;;6.21;100.00
52983;BME280;48698;45.736;13.926;2023-02-03T10:00:13;98586.41;;;6.51;100.00
52983;BME280;48698;45.736;13.926;2023-02-03T10:05:33;98552.25;;;6.43;100.00
52983;BME280;48698;45.736;13.926;2023-02-03T10:16:38;98538.91;;;6.91;100.00
52983;BME280;48698;45.736;13.926;2023-02-03T10:21:53;98553.25;;;7.19;100.00
52983;BME280;48698;45.736;13.926;2023-02-03T10:26:59;98502.75;;;7.29;100.00
52983;BME280;48698;45.736;13.926;2023-02-03T10:32:10;98258.53;;;6.43;100.00
52983;BME280;48698;45.736;13.926;2023-02-03T10:37:43;98451.41;;;7.73;100.00
52983;BME280;48698;45.736;13.926;2023-02-03T10:42:48;98428.13;;;7.21;100.00
52983;BME280;48698;45.736;13.926;2023-02-03T10:48:21;98454.28;;;7.97;100.00
52983;BME280;48698;45.736;13.926;2023-02-03T10:53:32;98483.97;;;8.08;100.00
52983;BME280;48698;45.736;13.926;2023-02-03T10:58:37;98488.75;;;8.57;100.00
52983;BME280;48698;45.736;13.926;2023-02-03T11:03:57;98383.16;;;8.17;100.00
52983;BME280;48698;45.736;13.926;2023-02-03T11:09:01;98392.19;;;8.10;100.00
52983;BME280;48698;45.736;13.926;2023-02-03T11:14:24;98433.34;;;8.20;100.00
52983;BME280;48698;45.736;13.926;2023-02-03T11:19:27;98318.63;;;7.93;100.00
52983;BME280;48698;45.736;13.926;2023-02-03T11:24:42;98320.16;;;8.02;100.00
52983;BME280;48698;45.736;13.926;2023-02-03T11:30:12;98424.47;;;8.79;100.00
52983;BME280;48698;45.736;13.926;2023-02-03T11:35:20;98124.16;;;7.26;100.00
52983;BME280;48698;45.736;13.926;2023-02-03T11:40:32;98391.44;;;9.17;100.00
52983;BME280;48698;45.736;13.926;2023-02-03T11:46:06;98348.41;;;9.11;100.00
52983;BME280;48698;45.736;13.926;2023-02-03T11:52:07;98276.56;;;8.94;100.00
52983;BME280;48698;45.736;13.926;2023-02-03T11:57:37;98377.81;;;9.28;100.00
52983;BME280;48698;45.736;13.926;2023-02-03T12:19:06;98342.63;;;10.20;100.00
52983;BME280;48698;45.736;13.926;2023-02-03T12:30:02;98306.72;;;9.64;100.00
52983;BME280;48698;45.736;13.926;2023-02-03T12:35:22;98271.88;;;9.50;100.00
52983;BME280;48698;45.736;13.926;2023-02-03T12:40:40;98273.81;;;9.69;100.00
52983;BME280;48698;45.736;13.926;2023-02-03T12:46:02;98294.78;;;9.75;100.00
52983;BME280;48698;45.736;13.926;2023-02-03T12:51:12;98227.56;;;9.76;100.00
52983;BME280;48698;45.736;13.926;2023-02-03T12:56:22;98274.78;;;10.12;100.00
52983;BME280;48698;45.736;13.926;2023-02-03T13:02:08;98206.13;;;9.36;100.00
52983;BME280;48698;45.736;13.926;2023-02-03T13:17:25;98238.19;;;9.98;100.00
52983;BME280;48698;45.736;13.926;2023-02-03T13:22:30;97949.06;;;8.46;100.00
52983;BME280;48698;45.736;13.926;2023-02-03T13:43:59;98121.59;;;9.73;100.00
52983;BME280;48698;45.736;13.926;2023-02-03T13:49:05;98172.19;;;10.34;100.00
52983;BME280;48698;45.736;13.926;2023-02-03T13:54:25;98110.16;;;9.93;100.00
52983;BME280;48698;45.736;13.926;2023-02-03T14:20:44;98179.88;;;9.97;100.00
52983;BME280;48698;45.736;13.926;2023-02-03T14:25:54;98161.38;;;9.73;100.00
52983;BME280;48698;45.736;13.926;2023-02-03T14:31:08;98113.50;;;9.31;100.00
52983;BME280;48698;45.736;13.926;2023-02-03T14:36:26;98166.22;;;9.62;100.00
52983;BME280;48698;45.736;13.926;2023-02-03T14:41:58;98169.69;;;9.64;100.00
52983;BME280;48698;45.736;13.926;2023-02-03T14:52:56;98160.47;;;9.28;100.00
52983;BME280;48698;45.736;13.926;2023-02-03T14:58:06;98115.66;;;8.99;100.00
52983;BME280;48698;45.736;13.926;2023-02-03T15:03:20;98120.69;;;9.06;100.00
52983;BME280;48698;45.736;13.926;2023-02-03T15:08:40;98085.00;;;8.68;100.00
52983;BME280;48698;45.736;13.926;2023-02-03T15:13:45;98024.06;;;7.96;100.00
52983;BME280;48698;45.736;13.926;2023-02-03T15:18:54;98075.91;;;8.26;100.00
52983;BME280;48698;45.736;13.926;2023-02-03T15:23:58;98106.47;;;8.36;100.00
52983;BME280;48698;45.736;13.926;2023-02-03T15:29:03;97990.31;;;7.53;100.00
52983;BME280;48698;45.736;13.926;2023-02-03T15:39:42;97967.38;;;7.01;100.00
52983;BME280;48698;45.736;13.926;2023-02-03T15:45:26;98182.19;;;8.14;100.00
52983;BME280;48698;45.736;13.926;2023-02-03T15:50:37;98139.75;;;7.91;100.00
52983;BME280;48698;45.736;13.926;2023-02-03T15:55:46;98115.69;;;7.72;100.00
52983;BME280;48698;45.736;13.926;2023-02-03T16:01:06;98079.19;;;7.29;100.00
52983;BME280;48698;45.736;13.926;2023-02-03T16:06:33;98141.38;;;7.68;100.00
52983;BME280;48698;45.736;13.926;2023-02-03T16:17:35;98155.47;;;7.67;100.00
52983;BME280;48698;45.736;13.926;2023-02-03T16:22:58;98137.19;;;7.61;100.00
52983;BME280;48698;45.736;13.926;2023-02-03T16:33:34;98138.28;;;7.54;100.00
52983;BME280;48698;45.736;13.926;2023-02-03T16:39:00;98133.78;;;7.56;100.00
52983;BME280;48698;45.736;13.926;2023-02-03T16:44:28;98050.59;;;7.14;100.00
52983;BME280;48698;45.736;13.926;2023-02-03T16:49:50;98088.59;;;7.38;100.00
52983;BME280;48698;45.736;13.926;2023-02-03T16:55:12;98081.19;;;7.21;100.00
52983;BME280;48698;45.736;13.926;2023-02-03T17:00:17;97925.94;;;6.18;100.00
52983;BME280;48698;45.736;13.926;2023-02-03T17:05:20;98047.69;;;6.94;100.00
52983;BME280;48698;45.736;13.926;2023-02-03T17:10:24;98001.09;;;6.63;100.00
52983;BME280;48698;45.736;13.926;2023-02-03T17:15:27;98094.50;;;7.18;100.00
52983;BME280;48698;45.736;13.926;2023-02-03T17:20:33;98007.06;;;6.99;100.00
52983;BME280;48698;45.736;13.926;2023-02-03T17:25:38;97986.19;;;6.62;100.00
52983;BME280;48698;45.736;13.926;2023-02-03T17:30:41;98064.00;;;7.08;100.00
52983;BME280;48698;45.736;13.926;2023-02-03T17:35:45;98027.66;;;6.87;100.00
52983;BME280;48698;45.736;13.926;2023-02-03T17:40:52;97892.13;;;6.03;100.00
52983;BME280;48698;45.736;13.926;2023-02-03T17:46:15;97993.41;;;6.85;100.00
52983;BME280;48698;45.736;13.926;2023-02-03T17:51:36;98022.47;;;6.84;100.00
52983;BME280;48698;45.736;13.926;2023-02-03T17:56:56;97985.13;;;6.68;100.00
52983;BME280;48698;45.736;13.926;2023-02-03T18:02:00;98031.13;;;6.89;100.00
52983;BME280;48698;45.736;13.926;2023-02-03T18:07:04;97911.59;;;6.28;100.00
52983;BME280;48698;45.736;13.926;2023-02-03T18:12:07;97969.53;;;6.60;100.00
52983;BME280;48698;45.736;13.926;2023-02-03T18:17:10;98017.88;;;6.90;100.00
52983;BME280;48698;45.736;13.926;2023-02-03T18:22:14;98020.50;;;6.90;100.00
52983;BME280;48698;45.736;13.926;2023-02-03T18:27:18;98005.84;;;6.82;100.00
52983;BME280;48698;45.736;13.926;2023-02-03T18:32:22;98041.09;;;7.08;100.00
52983;BME280;48698;45.736;13.926;2023-02-03T18:37:26;98041.44;;;6.96;100.00
52983;BME280;48698;45.736;13.926;2023-02-03T18:42:29;97989.16;;;6.52;100.00
52983;BME280;48698;45.736;13.926;2023-02-03T18:47:32;98013.09;;;6.44;100.00
52983;BME280;48698;45.736;13.926;2023-02-03T18:52:36;97948.88;;;5.84;100.00
52983;BME280;48698;45.736;13.926;2023-02-03T18:57:40;98027.81;;;6.53;100.00
52983;BME280;48698;45.736;13.926;2023-02-03T19:02:43;97914.22;;;5.66;100.00
52983;BME280;48698;45.736;13.926;2023-02-03T19:07:50;97976.31;;;5.77;100.00
52983;BME280;48698;45.736;13.926;2023-02-03T19:13:03;98056.31;;;6.08;100.00
52983;BME280;48698;45.736;13.926;2023-02-03T19:18:07;97945.16;;;5.60;100.00
52983;BME280;48698;45.736;13.926;2023-02-03T19:23:11;98054.44;;;5.79;100.00
52983;BME280;48698;45.736;13.926;2023-02-03T19:28:14;97894.16;;;4.59;100.00
52983;BME280;48698;45.736;13.926;2023-02-03T19:33:29;97967.53;;;5.08;100.00
52983;BME280;48698;45.736;13.926;2023-02-03T19:38:33;97989.94;;;5.25;100.00
52983;BME280;48698;45.736;13.926;2023-02-03T19:43:37;97976.00;;;4.84;100.00
52983;BME280;48698;45.736;13.926;2023-02-03T19:48:42;98011.31;;;5.12;100.00
52983;BME280;48698;45.736;13.926;2023-02-03T19:53:45;98015.28;;;5.30;100.00
52983;BME280;48698;45.736;13.926;2023-02-03T19:58:55;97948.72;;;4.10;100.00
52983;BME280;48698;45.736;13.926;2023-02-03T20:03:59;97938.06;;;4.16;100.00
52983;BME280;48698;45.736;13.926;2023-02-03T20:09:03;98026.91;;;4.00;100.00
52983;BME280;48698;45.736;13.926;2023-02-03T20:14:08;98042.22;;;3.76;100.00
52983;BME280;48698;45.736;13.926;2023-02-03T20:19:12;97854.88;;;2.85;100.00
52983;BME280;48698;45.736;13.926;2023-02-03T20:24:15;97992.69;;;3.56;100.00
52983;BME280;48698;45.736;13.926;2023-02-03T20:29:19;97950.03;;;3.43;100.00
52983;BME280;48698;45.736;13.926;2023-02-03T20:34:23;98012.91;;;3.98;100.00
52983;BME280;48698;45.736;13.926;2023-02-03T20:39:29;98031.28;;;4.00;100.00
52983;BME280;48698;45.736;13.926;2023-02-03T20:44:33;97986.38;;;3.66;100.00
52983;BME280;48698;45.736;13.926;2023-02-03T20:49:47;97930.78;;;3.44;100.00
52983;BME280;48698;45.736;13.926;2023-02-03T20:54:51;97989.16;;;4.03;100.00
52983;BME280;48698;45.736;13.926;2023-02-03T20:59:55;97969.25;;;2.93;100.00
52983;BME280;48698;45.736;13.926;2023-02-03T21:05:00;97983.91;;;3.05;100.00
52983;BME280;48698;45.736;13.926;2023-02-03T21:10:16;97990.03;;;3.05;100.00
52983;BME280;48698;45.736;13.926;2023-02-03T21:15:30;97946.31;;;3.06;100.00
52983;BME280;48698;45.736;13.926;2023-02-03T21:20:35;97679.94;;;1.37;100.00
52983;BME280;48698;45.736;13.926;2023-02-03T21:25:38;97957.94;;;2.90;100.00
52983;BME280;48698;45.736;13.926;2023-02-03T21:30:42;97874.44;;;2.63;100.00
52983;BME280;48698;45.736;13.926;2023-02-03T21:35:45;97960.41;;;3.00;100.00
52983;BME280;48698;45.736;13.926;2023-02-03T21:40:49;97968.28;;;3.00;100.00
52983;BME280;48698;45.736;13.926;2023-02-03T21:45:52;97952.50;;;2.45;100.00
52983;BME280;48698;45.736;13.926;2023-02-03T21:51:03;97963.63;;;1.98;100.00
52983;BME280;48698;45.736;13.926;2023-02-03T21:56:17;97901.09;;;1.70;100.00
52983;BME280;48698;45.736;13.926;2023-02-03T22:01:22;97895.56;;;1.92;100.00
52983;BME280;48698;45.736;13.926;2023-02-03T22:06:37;97962.59;;;2.10;100.00
52983;BME280;48698;45.736;13.926;2023-02-03T22:11:45;97834.13;;;1.53;100.00
52983;BME280;48698;45.736;13.926;2023-02-03T22:16:48;97878.09;;;1.23;100.00
52983;BME280;48698;45.736;13.926;2023-02-03T22:21:52;97827.13;;;0.79;100.00
52983;BME280;48698;45.736;13.926;2023-02-03T22:26:56;97822.69;;;0.89;100.00
52983;BME280;48698;45.736;13.926;2023-02-03T22:32:02;97643.22;;;0.06;100.00
52983;BME280;48698;45.736;13.926;2023-02-03T22:37:06;97840.31;;;0.64;100.00
52983;BME280;48698;45.736;13.926;2023-02-03T22:42:09;97946.38;;;0.94;100.00
52983;BME280;48698;45.736;13.926;2023-02-03T22:47:13;97921.22;;;0.81;100.00
52983;BME280;48698;45.736;13.926;2023-02-03T22:52:17;97850.53;;;0.90;100.00
52983;BME280;48698;45.736;13.926;2023-02-03T22:57:31;97918.31;;;1.14;100.00
52983;BME280;48698;45.736;13.926;2023-02-03T23:02:46;97901.13;;;0.87;100.00
52983;BME280;48698;45.736;13.926;2023-02-03T23:08:00;97891.69;;;0.67;100.00
52983;BME280;48698;45.736;13.926;2023-02-03T23:13:04;97711.28;;;-0.14;100.00
52983;BME280;48698;45.736;13.926;2023-02-03T23:18:08;97856.88;;;0.65;100.00
52983;BME280;48698;45.736;13.926;2023-02-03T23:23:12;97781.56;;;0.10;100.00
52983;BME280;48698;45.736;13.926;2023-02-03T23:28:16;97899.44;;;0.82;100.00
52983;BME280;48698;45.736;13.926;2023-02-03T23:33:23;97730.41;;;-0.11;100.00
52983;BME280;48698;45.736;13.926;2023-02-03T23:38:27;97902.78;;;0.93;100.00
52983;BME280;48698;45.736;13.926;2023-02-03T23:43:31;97927.47;;;0.62;100.00
52983;BME280;48698;45.736;13.926;2023-02-03T23:48:34;97620.94;;;-1.64;100.00
52983;BME280;48698;45.736;13.926;2023-02-03T23:53:38;97616.53;;;-1.54;100.00
52983;BME280;48698;45.736;13.926;2023-02-03T23:58:42;97733.44;;;-0.76;100.00
